Список аэропортов
Фактическая погода:

24 июня, 15:00
Температура: +31°C (+31.0*)
Ветер: юго-восточный 7 м/с
Давление: *758 мм
разорв. обл.
кучево-дождевые 990 м
разорв. обл.
Время (МСК)Темп. СВетерВлажностьДавлениеОблачностьОсадки
21:00+25В, 3 м/с60%1010 гПаоблачно
22:00+24В, 3 м/с68%1011 гПаоблачно
23:00+22В, 3 м/с74%1011 гПас прояснениями
25 июня
00:00+21В, 3 м/с77%1010 гПас прояснениями
01:00+20Ю, 2 м/с83%1011 гПас прояснениями
02:00+18С, 1 м/с92%1011 гПас прояснениямисл. дождь
03:00+18СВ, 2 м/с94%1011 гПас прояснениями
04:00+17СВ, 2 м/с98%1011 гПаоблачно
05:00+18СВ, 2 м/с93%1011 гПаоблачно
06:00+19В, 2 м/с88%1011 гПаоблачно
07:00+21ЮВ, 2 м/с80%1011 гПаоблачно
08:00+23Ю, 1 м/с76%1011 гПаоблачно
09:00+23ЮЗ, 1 м/с73%1011 гПаоблачно
10:00+25С, 1 м/с68%1011 гПаоблачно
11:00+27В, 2 м/с62%1011 гПаоблачно
12:00+28ЮВ, 3 м/с56%1011 гПас прояснениями
13:00+28Ю, 4 м/с56%1012 гПамалооблачно
14:00+26ЮЗ, 5 м/с68%1012 гПас прояснениямидождь
15:00+26ЮЗ, 6 м/с59%1013 гПамалооблачно
16:00+24ЮЗ, 5 м/с58%1014 гПаясно
17:00+24ЮЗ, 5 м/с58%1014 гПаясно
18:00+23ЮЗ, 5 м/с60%1015 гПаясно
19:00+22ЮЗ, 5 м/с61%1015 гПаясно
20:00+20ЮЗ, 4 м/с60%1015 гПаоблачно
21:00+19ЮЗ, 4 м/с60%1016 гПас прояснениями
22:00+17ЮЗ, 3 м/с66%1017 гПамалооблачно
23:00+16ЮЗ, 3 м/с73%1017 гПамалооблачно
26 июня
00:00+15ЮЗ, 3 м/с79%1017 гПаясно
01:00+14ЮЗ, 3 м/с83%1018 гПамалооблачно
02:00+14ЮЗ, 3 м/с87%1019 гПас прояснениями
03:00+13ЮЗ, 3 м/с93%1019 гПамалооблачно
04:00+13ЮЗ, 3 м/с96%1019 гПамалооблачно
05:00+13ЮЗ, 3 м/с92%1020 гПамалооблачно
06:00+15ЮЗ, 3 м/с83%1020 гПамалооблачно
07:00+18З, 4 м/с69%1020 гПас прояснениями
08:00+19З, 4 м/с57%1020 гПаясно
09:00+21З, 4 м/с52%1020 гПаясно
10:00+22З, 5 м/с48%1021 гПаясно
11:00+22З, 5 м/с45%1021 гПас прояснениями
12:00+23З, 5 м/с43%1021 гПаясно
13:00+24З, 4 м/с42%1021 гПаясно
14:00+24З, 4 м/с41%1021 гПаясно
15:00+24З, 4 м/с41%1021 гПаясно
16:00+24З, 4 м/с41%1021 гПаясно
17:00+24З, 4 м/с41%1021 гПаясно
18:00+24З, 3 м/с41%1021 гПаясно
19:00+23З, 3 м/с41%1021 гПаясно
20:00+22З, 1 м/с57%1021 гПаясно
21:00+19ЮЗ, 1 м/с70%1022 гПаясно